Time,TemperatureF,DewpointF,PressureIn,WindDirection,WindDirectionDegrees,WindSpeedMPH,WindSpeedGustMPH,Humidity,HourlyPrecipIn,Conditions,Clouds,dailyrainin,SolarRadiationWatts/m^2,SoftwareType,DateUTC
2013-02-21 00:00:00,42.6,36.3,29.80,ENE,61,8.1,12.1,78,0.00,,,0.00,0.0,meteobridge,2013-02-21 06:00:00,
2013-02-21 00:05:00,42.4,35.8,29.80,ENE,64,10.1,12.1,77,0.00,,,0.00,0.0,meteobridge,2013-02-21 06:05:00,
2013-02-21 00:11:00,42.6,36.0,29.80,East,90,13.0,13.0,77,0.00,,,0.00,0.0,meteobridge,2013-02-21 06:11:00,
2013-02-21 00:16:00,42.6,36.0,29.79,SE,125,6.0,12.1,77,0.00,,,0.00,0.0,meteobridge,2013-02-21 06:16:00,
2013-02-21 00:21:00,42.6,36.3,29.79,ESE,111,4.9,13.0,78,0.00,,,0.00,0.0,meteobridge,2013-02-21 06:21:00,
2013-02-21 00:26:00,42.8,36.1,29.78,ESE,115,8.9,14.1,77,0.00,,,0.00,0.0,meteobridge,2013-02-21 06:26:00,
2013-02-21 00:31:00,42.8,36.1,29.78,NE,55,14.1,14.1,77,0.00,,,0.00,0.0,meteobridge,2013-02-21 06:31:00,
2013-02-21 00:36:00,43.0,36.3,29.78,ESE,104,13.0,14.1,77,0.00,,,0.00,0.0,meteobridge,2013-02-21 06:36:00,
2013-02-21 00:41:00,43.0,36.3,29.78,East,82,13.0,14.1,77,0.00,,,0.00,0.0,meteobridge,2013-02-21 06:41:00,
2013-02-21 00:46:00,43.0,36.0,29.78,SE,129,14.1,14.1,76,0.00,,,0.00,0.0,meteobridge,2013-02-21 06:46:00,
2013-02-21 00:51:00,43.2,36.1,29.77,East,79,6.0,11.0,76,0.00,,,0.00,0.0,meteobridge,2013-02-21 06:51:00,
2013-02-21 00:56:00,43.2,36.1,29.78,ESE,118,14.1,14.1,76,0.00,,,0.00,0.0,meteobridge,2013-02-21 06:56:00,
2013-02-21 01:01:00,43.2,36.1,29.78,SE,140,6.9,15.0,76,0.00,,,0.00,0.0,meteobridge,2013-02-21 07:01:00,
2013-02-21 01:06:00,43.2,36.1,29.77,ENE,78,6.0,14.1,76,0.00,,,0.00,0.0,meteobridge,2013-02-21 07:06:00,
2013-02-21 01:11:00,43.2,35.8,29.77,East,98,10.1,14.1,75,0.00,,,0.00,0.0,meteobridge,2013-02-21 07:11:00,
2013-02-21 01:16:00,43.2,35.8,29.76,East,98,6.9,10.1,75,0.00,,,0.00,0.0,meteobridge,2013-02-21 07:16:00,
2013-02-21 01:21:00,43.3,36.0,29.76,NE,43,8.9,10.1,75,0.00,,,0.00,0.0,meteobridge,2013-02-21 07:21:00,
2013-02-21 01:26:00,43.3,36.0,29.77,East,90,6.9,12.1,75,0.00,,,0.00,0.0,meteobridge,2013-02-21 07:26:00,
2013-02-21 01:31:00,43.3,36.0,29.76,ENE,78,8.1,11.0,75,0.00,,,0.00,0.0,meteobridge,2013-02-21 07:31:00,
2013-02-21 01:36:00,43.3,36.0,29.77,ESE,103,4.0,12.1,75,0.00,,,0.00,0.0,meteobridge,2013-02-21 07:36:00,
2013-02-21 01:41:00,43.3,36.0,29.77,ESE,103,13.0,13.0,75,0.00,,,0.00,0.0,meteobridge,2013-02-21 07:41:00,
2013-02-21 01:46:00,43.5,36.1,29.76,ESE,114,6.0,10.1,75,0.00,,,0.00,0.0,meteobridge,2013-02-21 07:46:00,
2013-02-21 01:51:00,43.5,36.5,29.76,SE,144,4.0,10.1,76,0.00,,,0.00,0.0,meteobridge,2013-02-21 07:51:00,
2013-02-21 01:57:00,43.7,36.3,29.75,East,94,6.0,11.0,75,0.00,,,0.00,0.0,meteobridge,2013-02-21 07:57:00,
2013-02-21 02:02:00,43.9,36.5,29.75,NE,52,6.0,16.1,75,0.00,,,0.00,0.0,meteobridge,2013-02-21 08:02:00,
2013-02-21 02:07:00,44.1,36.7,29.75,ESE,108,4.0,12.1,75,0.00,,,0.00,0.0,meteobridge,2013-02-21 08:07:00,
2013-02-21 02:12:00,44.2,36.5,29.75,ESE,121,10.1,14.1,74,0.00,,,0.00,0.0,meteobridge,2013-02-21 08:12:00,
2013-02-21 02:17:00,44.6,36.9,29.74,ENE,75,11.0,13.0,74,0.00,,,0.00,0.0,meteobridge,2013-02-21 08:17:00,
2013-02-21 02:22:00,45.0,36.9,29.73,SE,136,8.9,17.9,73,0.00,,,0.00,0.0,meteobridge,2013-02-21 08:22:00,
2013-02-21 02:27:00,45.1,36.7,29.73,ESE,114,12.1,17.9,72,0.00,,,0.00,0.0,meteobridge,2013-02-21 08:27:00,
2013-02-21 02:32:00,45.3,36.5,29.74,ESE,122,10.1,16.1,71,0.00,,,0.00,0.0,meteobridge,2013-02-21 08:32:00,
2013-02-21 02:37:00,45.5,36.7,29.74,East,91,8.9,15.0,71,0.00,,,0.00,0.0,meteobridge,2013-02-21 08:37:00,
2013-02-21 02:42:00,45.7,36.9,29.74,ESE,112,11.0,17.0,71,0.00,,,0.00,0.0,meteobridge,2013-02-21 08:42:00,
2013-02-21 02:47:00,45.7,36.9,29.74,ESE,107,6.0,12.1,71,0.00,,,0.00,0.0,meteobridge,2013-02-21 08:47:00,
2013-02-21 02:52:00,45.3,36.9,29.74,ENE,62,11.0,15.0,72,0.00,,,0.00,0.0,meteobridge,2013-02-21 08:52:00,
2013-02-21 02:57:00,45.3,37.2,29.74,SE,135,8.9,14.1,73,0.00,,,0.00,0.0,meteobridge,2013-02-21 08:57:00,
2013-02-21 03:02:00,45.3,36.9,29.74,ESE,112,13.0,13.0,72,0.00,,,0.00,0.0,meteobridge,2013-02-21 09:02:00,
2013-02-21 03:07:00,45.3,36.9,29.74,ESE,121,12.1,16.1,72,0.00,,,0.00,0.0,meteobridge,2013-02-21 09:07:00,
2013-02-21 03:12:00,45.3,36.9,29.73,ESE,122,4.9,15.0,72,0.00,,,0.00,0.0,meteobridge,2013-02-21 09:12:00,
2013-02-21 03:17:00,45.5,37.0,29.74,ESE,113,11.0,13.0,72,0.00,,,0.00,0.0,meteobridge,2013-02-21 09:17:00,
2013-02-21 03:22:00,45.5,37.0,29.74,ESE,117,6.9,12.1,72,0.00,,,0.00,0.0,meteobridge,2013-02-21 09:22:00,
2013-02-21 03:27:00,45.3,37.6,29.73,ENE,61,6.0,12.1,74,0.00,,,0.00,0.0,meteobridge,2013-02-21 09:27:00,
2013-02-21 03:32:00,45.1,37.8,29.74,ENE,75,4.9,13.0,75,0.00,,,0.00,0.0,meteobridge,2013-02-21 09:32:00,
2013-02-21 06:29:00,-999.0,-99.9,-100.00,North,-999,-999.0,-999.0,-999,-99.99,,,-99.99,,,2013-02-21 12:29:00,
2013-02-21 06:36:00,-999.0,-99.9,29.66,North,-999,-999.0,-999.0,-999,-99.99,,,0.00,,meteobridge,2013-02-21 12:36:00,
2013-02-21 06:41:00,43.2,39.6,29.65,ESE,123,11.0,16.1,87,0.00,,,0.06,0.0,meteobridge,2013-02-21 12:41:00,
2013-02-21 06:46:00,43.3,39.7,29.63,ESE,119,12.1,21.9,87,0.01,,,0.07,0.0,meteobridge,2013-02-21 12:46:00,
2013-02-21 06:51:00,43.5,40.3,29.62,ESE,116,12.1,27.1,88,0.01,,,0.07,0.0,meteobridge,2013-02-21 12:51:00,
2013-02-21 06:56:00,43.7,40.5,29.63,ESE,121,23.0,23.0,88,0.02,,,0.08,0.0,meteobridge,2013-02-21 12:56:00,
2013-02-21 07:01:00,44.1,40.8,29.62,ESE,115,10.1,16.1,88,0.02,,,0.08,0.0,meteobridge,2013-02-21 13:01:00,
2013-02-21 07:06:00,44.1,40.8,29.63,SE,138,16.1,21.9,88,0.02,,,0.08,0.0,meteobridge,2013-02-21 13:06:00,
2013-02-21 07:11:00,44.2,41.0,29.63,ESE,109,17.0,19.9,88,0.02,,,0.08,0.0,meteobridge,2013-02-21 13:11:00,
2013-02-21 07:16:00,44.2,41.0,29.62,ESE,122,13.0,23.0,88,0.00,,,0.08,0.0,meteobridge,2013-02-21 13:16:00,
2013-02-21 07:21:00,44.2,41.0,29.63,SE,131,19.9,21.9,88,0.00,,,0.08,5.0,meteobridge,2013-02-21 13:21:00,
2013-02-21 07:26:00,44.4,41.2,29.63,SE,131,21.0,25.9,88,0.00,,,0.08,5.0,meteobridge,2013-02-21 13:26:00,
2013-02-21 07:31:00,44.4,41.2,29.63,SE,128,17.0,21.9,88,0.00,,,0.08,5.0,meteobridge,2013-02-21 13:31:00,
2013-02-21 07:39:00,44.4,41.2,29.63,SE,126,16.1,23.9,88,0.00,,,0.08,12.0,meteobridge,2013-02-21 13:39:00,
2013-02-21 07:44:00,44.6,41.2,29.63,SE,134,23.0,25.9,88,0.00,,,0.08,19.0,meteobridge,2013-02-21 13:44:00,
2013-02-21 07:49:00,44.8,41.4,29.62,ESE,123,15.0,23.9,88,0.00,,,0.08,40.0,meteobridge,2013-02-21 13:49:00,
2013-02-21 07:54:00,44.8,41.4,29.62,ESE,123,21.0,25.1,88,0.00,,,0.08,14.0,meteobridge,2013-02-21 13:54:00,
2013-02-21 07:59:00,44.8,41.7,29.61,ESE,109,17.0,27.1,89,0.00,,,0.08,23.0,meteobridge,2013-02-21 13:59:00,
2013-02-21 08:04:00,45.0,41.9,29.62,SE,140,17.0,28.0,89,0.00,,,0.08,25.0,meteobridge,2013-02-21 14:04:00,
2013-02-21 08:10:00,45.0,41.9,29.62,SE,128,17.9,28.0,89,0.00,,,0.08,30.0,meteobridge,2013-02-21 14:10:00,
2013-02-21 08:15:00,45.1,42.1,29.62,ESE,122,14.1,23.0,89,0.00,,,0.08,25.0,meteobridge,2013-02-21 14:15:00,
2013-02-21 08:20:00,45.3,42.3,29.62,SE,128,15.0,19.9,89,0.00,,,0.08,18.0,meteobridge,2013-02-21 14:20:00,
2013-02-21 08:25:00,45.3,42.3,29.62,ESE,119,13.0,19.9,89,0.00,,,0.08,23.0,meteobridge,2013-02-21 14:25:00,
2013-02-21 08:30:00,45.5,42.8,29.63,SE,133,12.1,17.0,90,0.00,,,0.08,12.0,meteobridge,2013-02-21 14:30:00,
2013-02-21 08:35:00,45.7,43.0,29.63,SE,130,4.0,12.1,90,0.00,,,0.08,12.0,meteobridge,2013-02-21 14:35:00,
2013-02-21 08:40:00,45.7,43.0,29.64,SE,126,10.1,14.1,90,0.00,,,0.08,18.0,meteobridge,2013-02-21 14:40:00,
2013-02-21 08:45:00,45.9,43.2,29.64,SE,136,10.1,16.1,90,0.00,,,0.08,16.0,meteobridge,2013-02-21 14:45:00,
2013-02-21 08:48:00,46.0,43.3,29.63,SSE,148,11.0,12.1,90,0.00,,,0.08,25.0,meteobridge,2013-02-21 14:48:00,
2013-02-21 08:49:00,46.0,43.3,29.63,SE,142,12.1,12.1,90,0.00,,,0.08,25.0,meteobridge,2013-02-21 14:49:00,
2013-02-21 08:51:00,46.0,43.3,29.63,ESE,115,4.9,15.0,90,0.00,,,0.08,23.0,meteobridge,2013-02-21 14:51:00,
2013-02-21 08:56:00,46.2,43.5,29.64,ESE,123,6.9,14.1,90,0.00,,,0.08,16.0,meteobridge,2013-02-21 14:56:00,
2013-02-21 09:02:00,46.6,43.9,29.64,ESE,123,8.9,12.1,90,0.00,,,0.08,12.0,meteobridge,2013-02-21 15:02:00,
2013-02-21 09:08:00,46.9,44.4,29.64,ESE,109,4.0,16.1,91,0.00,,,0.08,18.0,meteobridge,2013-02-21 15:08:00,
2013-02-21 09:13:00,47.5,45.0,29.71,North,355,15.0,17.0,91,0.00,,,0.08,0.0,meteobridge,2013-02-21 15:13:00,
2013-02-21 09:20:00,47.5,45.0,29.70,NW,316,4.0,6.9,91,0.00,,,0.08,7.0,meteobridge,2013-02-21 15:20:00,
2013-02-21 09:48:00,47.8,45.1,29.72,NNW,348,8.9,-999.0,91,-99.99,,,0.10,192.0,meteobridge,2013-02-21 15:48:00,
2013-02-21 09:49:00,47.7,45.1,29.71,NNW,342,2.9,4.9,91,0.00,,,0.11,32.0,meteobridge,2013-02-21 15:49:00,
2013-02-21 09:54:00,47.8,45.3,29.72,NW,314,2.9,2.9,91,0.00,,,0.11,21.0,meteobridge,2013-02-21 15:54:00,
2013-02-21 09:59:00,47.3,44.8,29.71,North,5,4.9,6.9,91,0.00,,,0.11,32.0,meteobridge,2013-02-21 15:59:00,
2013-02-21 10:05:00,47.1,44.6,29.71,North,0,4.0,6.9,91,0.00,,,0.11,74.0,meteobridge,2013-02-21 16:05:00,
2013-02-21 10:11:00,47.3,44.8,29.70,North,355,4.9,13.0,91,0.01,,,0.12,100.0,meteobridge,2013-02-21 16:11:00,
2013-02-21 10:17:00,-999.0,-99.9,-100.00,North,-999,-999.0,-999.0,-999,-99.99,,,-99.99,,,2013-02-21 16:17:00,
2013-02-21 10:22:00,47.5,45.3,29.71,NNE,22,6.0,8.9,92,0.00,,,0.12,97.0,meteobridge,2013-02-21 16:22:00,
2013-02-21 10:27:00,47.5,45.3,29.70,North,0,4.9,10.1,92,0.00,,,0.12,81.0,meteobridge,2013-02-21 16:27:00,
2013-02-21 10:32:00,47.5,45.3,29.70,NNE,26,6.0,10.1,92,0.00,,,0.12,149.0,meteobridge,2013-02-21 16:32:00,
2013-02-21 10:37:00,47.7,45.5,29.70,NE,35,4.0,6.9,92,0.00,,,0.12,98.0,meteobridge,2013-02-21 16:37:00,
2013-02-21 10:42:00,47.7,45.5,29.70,NNE,17,4.0,10.1,92,0.00,,,0.12,160.0,meteobridge,2013-02-21 16:42:00,
2013-02-21 10:47:00,47.8,45.7,29.68,ENE,57,6.9,11.0,92,0.00,,,0.12,236.0,meteobridge,2013-02-21 16:47:00,
2013-02-21 10:52:00,48.4,46.2,29.67,NNE,26,2.9,11.0,92,0.00,,,0.12,455.0,meteobridge,2013-02-21 16:52:00,
2013-02-21 10:57:00,49.8,47.8,29.67,NE,35,8.1,11.0,93,0.00,,,0.12,466.0,meteobridge,2013-02-21 16:57:00,
2013-02-21 11:02:00,50.2,48.2,29.68,NE,50,4.9,12.1,93,0.00,,,0.12,244.0,meteobridge,2013-02-21 17:02:00,
2013-02-21 11:07:00,50.2,48.2,29.68,ENE,69,4.0,8.1,93,0.00,,,0.12,441.0,meteobridge,2013-02-21 17:07:00,
2013-02-21 11:12:00,50.4,48.4,29.68,ENE,62,2.0,6.0,93,0.00,,,0.12,330.0,meteobridge,2013-02-21 17:12:00,
2013-02-21 11:17:00,50.7,48.6,29.67,ENE,59,4.0,8.1,92,0.00,,,0.12,339.0,meteobridge,2013-02-21 17:17:00,
2013-02-21 11:22:00,51.1,48.9,29.67,ESE,103,2.0,6.9,92,0.00,,,0.12,800.0,meteobridge,2013-02-21 17:22:00,
2013-02-21 11:27:00,50.7,48.6,29.67,East,83,4.0,6.9,92,0.00,,,0.12,410.0,meteobridge,2013-02-21 17:27:00,
2013-02-21 11:32:00,50.7,48.6,29.68,ESE,117,2.9,4.9,92,0.00,,,0.12,374.0,meteobridge,2013-02-21 17:32:00,
2013-02-21 11:37:00,50.9,48.7,29.68,NE,37,4.9,10.1,92,0.00,,,0.12,383.0,meteobridge,2013-02-21 17:37:00,
2013-02-21 11:42:00,50.9,48.7,29.69,ESE,109,4.0,6.0,92,0.00,,,0.12,496.0,meteobridge,2013-02-21 17:42:00,
2013-02-21 11:47:00,51.3,48.7,29.69,ESE,109,0.0,2.9,91,0.00,,,0.12,529.0,meteobridge,2013-02-21 17:47:00,
2013-02-21 11:53:00,52.7,50.2,29.69,ENE,76,2.0,4.0,91,0.00,,,0.12,991.0,meteobridge,2013-02-21 17:53:00,
2013-02-21 11:58:00,53.2,50.4,29.70,SE,146,2.9,6.0,90,0.00,,,0.12,847.0,meteobridge,2013-02-21 17:58:00,
2013-02-21 12:03:00,52.5,49.5,29.70,SE,146,0.0,2.9,89,0.00,,,0.12,494.0,meteobridge,2013-02-21 18:03:00,
2013-02-21 12:08:00,53.1,49.6,29.69,SE,138,2.9,6.9,88,0.00,,,0.12,566.0,meteobridge,2013-02-21 18:08:00,
2013-02-21 12:13:00,53.6,50.2,29.68,SE,138,0.0,0.9,88,0.00,,,0.12,840.0,meteobridge,2013-02-21 18:13:00,
2013-02-21 12:18:00,54.5,50.7,29.68,East,82,2.0,4.0,87,0.00,,,0.12,877.0,meteobridge,2013-02-21 18:18:00,
2013-02-21 12:24:00,54.1,50.0,29.68,East,82,0.9,2.0,86,0.00,,,0.12,761.0,meteobridge,2013-02-21 18:24:00,
2013-02-21 12:29:00,54.3,50.2,29.69,South,179,4.9,6.0,86,0.00,,,0.12,520.0,meteobridge,2013-02-21 18:29:00,
2013-02-21 12:34:00,54.0,49.8,29.68,SW,234,2.9,4.0,86,0.00,,,0.12,255.0,meteobridge,2013-02-21 18:34:00,
2013-02-21 12:39:00,55.0,51.3,29.68,SSW,213,2.9,2.9,87,0.00,,,0.12,900.0,meteobridge,2013-02-21 18:39:00,
2013-02-21 12:44:00,55.8,51.3,29.67,SSE,158,0.0,6.9,85,0.00,,,0.12,786.0,meteobridge,2013-02-21 18:44:00,
2013-02-21 12:49:00,56.1,51.4,29.67,South,171,4.0,6.0,84,0.00,,,0.12,932.0,meteobridge,2013-02-21 18:49:00,
2013-02-21 12:54:00,56.5,52.0,29.66,South,171,0.9,6.0,85,0.00,,,0.12,411.0,meteobridge,2013-02-21 18:54:00,
2013-02-21 12:59:00,57.0,52.2,29.67,SSE,157,2.9,2.9,84,0.00,,,0.12,330.0,meteobridge,2013-02-21 18:59:00,
2013-02-21 13:04:00,58.6,53.2,29.67,West,275,2.0,4.9,82,0.00,,,0.12,856.0,meteobridge,2013-02-21 19:04:00,
2013-02-21 13:09:00,60.4,52.9,29.66,WSW,258,2.9,12.1,76,0.00,,,0.12,874.0,meteobridge,2013-02-21 19:09:00,
2013-02-21 13:15:00,61.5,51.3,29.65,WSW,252,12.1,12.1,69,0.00,,,0.12,366.0,meteobridge,2013-02-21 19:15:00,
2013-02-21 13:20:00,61.0,50.4,29.65,WSW,238,6.9,10.1,68,0.00,,,0.12,905.0,meteobridge,2013-02-21 19:20:00,
2013-02-21 13:25:00,60.6,50.4,29.65,WSW,254,4.9,8.9,69,0.00,,,0.12,807.0,meteobridge,2013-02-21 19:25:00,
2013-02-21 13:30:00,61.3,50.4,29.64,West,259,2.9,14.1,67,0.00,,,0.12,772.0,meteobridge,2013-02-21 19:30:00,
2013-02-21 13:35:00,62.2,50.0,29.64,NW,316,2.9,8.9,64,0.00,,,0.12,821.0,meteobridge,2013-02-21 19:35:00,
2013-02-21 13:40:00,61.7,48.9,29.64,WSW,252,6.9,8.9,63,0.00,,,0.12,401.0,meteobridge,2013-02-21 19:40:00,
2013-02-21 13:45:00,61.5,48.0,29.65,West,272,6.9,14.1,61,0.00,,,0.12,471.0,meteobridge,2013-02-21 19:45:00,
2013-02-21 13:50:00,62.4,48.7,29.64,WSW,249,12.1,16.1,61,0.00,,,0.12,853.0,meteobridge,2013-02-21 19:50:00,
2013-02-21 13:55:00,63.0,48.0,29.64,WSW,258,4.0,11.0,58,0.00,,,0.12,775.0,meteobridge,2013-02-21 19:55:00,
2013-02-21 14:00:00,63.7,47.7,29.64,SW,231,12.1,15.0,56,0.00,,,0.12,728.0,meteobridge,2013-02-21 20:00:00,
2013-02-21 14:05:00,63.3,46.4,29.64,West,269,6.0,19.9,54,0.00,,,0.12,721.0,meteobridge,2013-02-21 20:05:00,
2013-02-21 14:10:00,63.1,46.8,29.64,WSW,237,4.0,13.0,55,0.00,,,0.12,717.0,meteobridge,2013-02-21 20:10:00,
2013-02-21 14:15:00,63.9,46.4,29.64,WSW,252,4.9,13.0,53,0.00,,,0.12,712.0,meteobridge,2013-02-21 20:15:00,
2013-02-21 14:20:00,64.2,45.1,29.64,North,9,13.0,13.0,50,0.00,,,0.12,708.0,meteobridge,2013-02-21 20:20:00,
2013-02-21 14:25:00,63.9,43.7,29.63,SW,227,11.0,16.1,48,0.00,,,0.12,710.0,meteobridge,2013-02-21 20:25:00,
2013-02-21 14:30:00,64.0,43.3,29.64,WSW,250,2.9,16.1,47,0.00,,,0.12,686.0,meteobridge,2013-02-21 20:30:00,
2013-02-21 14:35:00,63.9,43.7,29.64,WNW,288,6.0,15.0,48,0.00,,,0.12,680.0,meteobridge,2013-02-21 20:35:00,
2013-02-21 14:40:00,63.9,44.2,29.64,WSW,238,13.0,13.0,49,0.00,,,0.12,670.0,meteobridge,2013-02-21 20:40:00,
2013-02-21 14:45:00,64.2,44.6,29.63,SW,232,6.0,11.0,49,0.00,,,0.12,661.0,meteobridge,2013-02-21 20:45:00,
2013-02-21 14:50:00,64.2,44.6,29.64,WSW,239,8.9,12.1,49,0.00,,,0.12,652.0,meteobridge,2013-02-21 20:50:00,
2013-02-21 14:55:00,63.9,44.8,29.64,West,265,8.9,11.0,50,0.00,,,0.12,640.0,meteobridge,2013-02-21 20:55:00,
2013-02-21 15:00:00,64.2,44.6,29.64,West,265,12.1,14.1,49,0.00,,,0.12,628.0,meteobridge,2013-02-21 21:00:00,
2013-02-21 15:05:00,64.6,44.4,29.64,NNW,338,6.9,11.0,48,0.00,,,0.12,615.0,meteobridge,2013-02-21 21:05:00,
2013-02-21 15:10:00,64.2,45.1,29.64,WNW,294,2.9,11.0,50,0.00,,,0.12,599.0,meteobridge,2013-02-21 21:10:00,
2013-02-21 15:15:00,64.8,45.7,29.64,WSW,254,4.9,14.1,50,0.00,,,0.12,587.0,meteobridge,2013-02-21 21:15:00,
2013-02-21 15:20:00,64.8,43.0,29.64,SW,221,6.0,15.0,45,0.00,,,0.12,573.0,meteobridge,2013-02-21 21:20:00,
2013-02-21 15:25:00,65.1,44.4,29.65,SW,236,11.0,11.0,47,0.00,,,0.12,564.0,meteobridge,2013-02-21 21:25:00,
2013-02-21 15:30:00,65.1,43.3,29.64,NNW,327,6.9,14.1,45,0.00,,,0.12,554.0,meteobridge,2013-02-21 21:30:00,
2013-02-21 15:35:00,64.8,43.0,29.64,WSW,246,4.0,14.1,45,0.00,,,0.12,540.0,meteobridge,2013-02-21 21:35:00,
2013-02-21 15:40:00,64.8,43.0,29.65,SW,234,15.0,15.0,45,0.00,,,0.12,522.0,meteobridge,2013-02-21 21:40:00,
2013-02-21 15:45:00,64.9,43.7,29.65,NW,310,0.0,13.0,46,0.00,,,0.12,510.0,meteobridge,2013-02-21 21:45:00,
2013-02-21 15:50:00,65.1,42.6,29.65,WSW,248,11.0,14.1,44,0.00,,,0.12,496.0,meteobridge,2013-02-21 21:50:00,
2013-02-21 15:55:00,65.1,43.3,29.65,West,266,0.9,11.0,45,0.00,,,0.12,478.0,meteobridge,2013-02-21 21:55:00,
2013-02-21 16:00:00,65.5,43.0,29.65,WSW,238,4.9,13.0,44,0.00,,,0.12,462.0,meteobridge,2013-02-21 22:00:00,
2013-02-21 16:06:00,65.3,42.8,29.65,WNW,290,6.9,13.0,44,0.00,,,0.12,445.0,meteobridge,2013-02-21 22:06:00,
2013-02-21 16:11:00,65.5,43.0,29.65,SW,234,4.9,10.1,44,0.00,,,0.12,429.0,meteobridge,2013-02-21 22:11:00,
2013-02-21 16:16:00,65.5,42.4,29.66,WSW,244,6.9,8.9,43,0.00,,,0.12,410.0,meteobridge,2013-02-21 22:16:00,
2013-02-21 16:21:00,65.8,43.3,29.66,WSW,244,2.9,4.9,44,0.00,,,0.12,390.0,meteobridge,2013-02-21 22:21:00,
2013-02-21 16:26:00,65.7,43.2,29.66,WNW,292,4.9,12.1,44,0.00,,,0.12,376.0,meteobridge,2013-02-21 22:26:00,
2013-02-21 16:31:00,65.7,43.2,29.66,WSW,238,2.0,6.0,44,0.00,,,0.12,360.0,meteobridge,2013-02-21 22:31:00,
2013-02-21 16:36:00,65.8,42.8,29.66,WSW,252,6.9,10.1,43,0.00,,,0.12,345.0,meteobridge,2013-02-21 22:36:00,
2013-02-21 16:41:00,65.8,43.3,29.66,West,261,6.0,11.0,44,0.00,,,0.12,327.0,meteobridge,2013-02-21 22:41:00,
2013-02-21 16:46:00,65.7,42.6,29.66,West,279,2.0,6.0,43,0.00,,,0.12,309.0,meteobridge,2013-02-21 22:46:00,
2013-02-21 16:51:00,65.7,42.6,29.66,WNW,296,0.9,6.0,43,0.00,,,0.12,292.0,meteobridge,2013-02-21 22:51:00,
2013-02-21 16:56:00,66.0,43.5,29.67,WNW,284,0.0,2.9,44,0.00,,,0.12,272.0,meteobridge,2013-02-21 22:56:00,
2013-02-21 17:01:00,66.0,43.5,29.67,WNW,302,4.9,8.9,44,0.00,,,0.12,255.0,meteobridge,2013-02-21 23:01:00,
2013-02-21 17:06:00,65.8,42.8,29.67,WNW,284,0.9,6.0,43,0.00,,,0.12,239.0,meteobridge,2013-02-21 23:06:00,
2013-02-21 17:11:00,65.7,42.6,29.67,West,274,0.0,10.1,43,0.00,,,0.12,220.0,meteobridge,2013-02-21 23:11:00,
2013-02-21 17:16:00,65.5,42.4,29.68,WNW,288,2.9,6.9,43,0.00,,,0.12,200.0,meteobridge,2013-02-21 23:16:00,
2013-02-21 17:21:00,65.1,42.6,29.68,NW,315,2.9,6.0,44,0.00,,,0.12,183.0,meteobridge,2013-02-21 23:21:00,
2013-02-21 17:26:00,64.6,42.3,29.68,WNW,293,4.9,6.0,44,0.00,,,0.12,165.0,meteobridge,2013-02-21 23:26:00,
2013-02-21 17:31:00,64.2,42.4,29.68,NW,315,4.9,4.9,45,0.00,,,0.12,148.0,meteobridge,2013-02-21 23:31:00,
2013-02-21 17:36:00,63.9,41.5,29.68,NW,319,4.0,4.9,44,0.00,,,0.12,128.0,meteobridge,2013-02-21 23:36:00,
2013-02-21 17:41:00,63.9,42.1,29.68,NW,311,2.9,4.9,45,0.00,,,0.12,107.0,meteobridge,2013-02-21 23:41:00,
2013-02-21 17:46:00,63.0,42.4,29.69,North,0,6.0,6.0,47,0.00,,,0.12,86.0,meteobridge,2013-02-21 23:46:00,
2013-02-21 17:51:00,62.1,42.6,29.69,North,0,2.9,6.0,49,0.00,,,0.12,67.0,meteobridge,2013-02-21 23:51:00,
2013-02-21 19:15:00,-999.0,-99.9,-100.00,North,-999,-999.0,-999.0,-999,-99.99,,,-99.99,,,2013-02-22 01:15:00,
2013-02-21 19:20:00,53.4,41.2,29.75,North,355,0.0,0.0,63,0.00,,,0.00,0.0,meteobridge,2013-02-22 01:20:00,
2013-02-21 19:26:00,53.4,41.5,29.75,North,355,0.0,-999.0,64,-99.99,,,0.00,0.0,meteobridge,2013-02-22 01:26:00,
2013-02-21 19:31:00,54.0,41.2,29.76,North,355,0.0,0.9,62,0.00,,,0.00,0.0,meteobridge,2013-02-22 01:31:00,
2013-02-21 19:36:00,52.9,41.0,29.76,North,355,0.0,0.9,64,0.00,,,0.00,0.0,meteobridge,2013-02-22 01:36:00,
2013-02-21 19:41:00,52.5,41.2,29.76,North,355,0.0,0.9,65,0.00,,,0.00,0.0,meteobridge,2013-02-22 01:41:00,
2013-02-21 19:46:00,52.5,41.5,29.76,North,355,0.0,0.0,66,0.00,,,0.00,0.0,meteobridge,2013-02-22 01:46:00,
2013-02-21 19:51:00,52.5,41.5,29.77,North,355,0.0,0.0,66,0.00,,,0.00,0.0,meteobridge,2013-02-22 01:51:00,
2013-02-21 19:57:00,52.3,41.4,29.77,North,355,0.0,0.0,66,0.00,,,0.00,0.0,meteobridge,2013-02-22 01:57:00,
2013-02-21 20:02:00,51.6,41.0,29.78,North,355,0.0,0.0,67,0.00,,,0.00,0.0,meteobridge,2013-02-22 02:02:00,
2013-02-21 20:07:00,51.1,41.2,29.78,North,355,0.0,2.0,69,0.00,,,0.00,0.0,meteobridge,2013-02-22 02:07:00,
2013-02-21 20:12:00,51.1,41.7,29.78,North,355,0.0,0.0,70,0.00,,,0.00,0.0,meteobridge,2013-02-22 02:12:00,
2013-02-21 20:17:00,51.4,41.5,29.78,North,355,0.0,0.9,69,0.00,,,0.00,0.0,meteobridge,2013-02-22 02:17:00,
2013-02-21 20:22:00,51.1,41.2,29.78,North,355,0.0,0.9,69,0.00,,,0.00,0.0,meteobridge,2013-02-22 02:22:00,
2013-02-21 20:27:00,50.4,41.0,29.79,North,355,2.0,2.9,70,0.00,,,0.00,0.0,meteobridge,2013-02-22 02:27:00,
2013-02-21 20:32:00,49.5,40.8,29.79,North,355,0.0,0.0,72,0.00,,,0.00,0.0,meteobridge,2013-02-22 02:32:00,
2013-02-21 20:37:00,49.8,40.8,29.79,North,355,0.0,0.0,71,0.00,,,0.00,0.0,meteobridge,2013-02-22 02:37:00,
2013-02-21 20:43:00,50.5,41.2,29.79,North,355,0.0,0.0,70,0.00,,,0.00,0.0,meteobridge,2013-02-22 02:43:00,
2013-02-21 20:48:00,50.5,41.2,29.79,North,355,0.0,0.0,70,0.00,,,0.00,0.0,meteobridge,2013-02-22 02:48:00,
2013-02-21 20:54:00,50.5,40.8,29.79,North,355,0.0,0.0,69,0.00,,,0.00,0.0,meteobridge,2013-02-22 02:54:00,
2013-02-21 20:59:00,51.4,40.8,29.79,North,355,0.0,0.0,67,0.00,,,0.00,0.0,meteobridge,2013-02-22 02:59:00,
2013-02-21 21:04:00,52.0,41.0,29.80,North,355,0.0,0.0,66,0.00,,,0.00,0.0,meteobridge,2013-02-22 03:04:00,
2013-02-21 21:09:00,52.0,41.0,29.80,North,355,0.0,0.0,66,0.00,,,0.00,0.0,meteobridge,2013-02-22 03:09:00,
2013-02-21 21:14:00,51.4,40.5,29.80,North,355,0.9,0.9,66,0.00,,,0.00,0.0,meteobridge,2013-02-22 03:14:00,
2013-02-21 21:20:00,50.5,40.5,29.80,North,355,0.0,0.0,68,0.00,,,0.00,0.0,meteobridge,2013-02-22 03:20:00,
2013-02-21 21:25:00,50.7,40.1,29.80,North,355,0.0,0.0,67,0.00,,,0.00,0.0,meteobridge,2013-02-22 03:25:00,
2013-02-21 21:30:00,50.2,40.5,29.80,North,355,2.0,2.0,69,0.00,,,0.00,0.0,meteobridge,2013-02-22 03:30:00,
2013-02-21 21:35:00,51.4,40.5,29.80,North,355,0.0,0.0,66,0.00,,,0.00,0.0,meteobridge,2013-02-22 03:35:00,
2013-02-21 21:40:00,52.7,39.6,29.80,North,355,0.0,0.9,61,0.00,,,0.00,0.0,meteobridge,2013-02-22 03:40:00,
2013-02-21 21:45:00,53.2,39.7,29.81,North,355,0.0,2.9,60,0.00,,,0.00,0.0,meteobridge,2013-02-22 03:45:00,
2013-02-21 21:51:00,54.1,39.7,29.82,NW,306,10.1,11.0,58,0.00,,,0.00,0.0,meteobridge,2013-02-22 03:51:00,
2013-02-21 21:56:00,55.0,39.6,29.83,WNW,295,6.0,13.0,56,0.00,,,0.00,0.0,meteobridge,2013-02-22 03:56:00,
2013-02-21 22:01:00,55.6,39.7,29.83,NW,309,2.9,11.0,55,0.00,,,0.00,0.0,meteobridge,2013-02-22 04:01:00,
2013-02-21 22:06:00,55.8,39.9,29.84,NW,308,6.0,11.0,55,0.00,,,0.00,0.0,meteobridge,2013-02-22 04:06:00,
2013-02-21 22:11:00,55.6,40.1,29.85,NW,310,4.9,13.0,56,0.00,,,0.00,0.0,meteobridge,2013-02-22 04:11:00,
2013-02-21 22:16:00,55.0,40.1,29.85,North,11,2.9,10.1,57,0.00,,,0.00,0.0,meteobridge,2013-02-22 04:16:00,
2013-02-21 22:21:00,54.7,40.3,29.86,NNW,348,10.1,14.1,58,0.00,,,0.00,0.0,meteobridge,2013-02-22 04:21:00,
2013-02-21 22:26:00,54.1,40.6,29.87,NNW,346,12.1,16.1,60,0.00,,,0.00,0.0,meteobridge,2013-02-22 04:26:00,
2013-02-21 22:31:00,53.2,40.6,29.87,North,5,6.9,13.0,62,0.00,,,0.00,0.0,meteobridge,2013-02-22 04:31:00,
2013-02-21 22:36:00,52.3,40.1,29.88,North,9,12.1,19.0,63,0.00,,,0.00,0.0,meteobridge,2013-02-22 04:36:00,
2013-02-21 22:41:00,51.4,40.1,29.88,North,9,11.0,15.0,65,0.00,,,0.00,0.0,meteobridge,2013-02-22 04:41:00,
2013-02-21 22:46:00,50.7,39.7,29.88,NNW,344,12.1,14.1,66,0.00,,,0.00,0.0,meteobridge,2013-02-22 04:46:00,
2013-02-21 22:51:00,50.2,39.6,29.89,NNW,344,12.1,12.1,67,0.00,,,0.00,0.0,meteobridge,2013-02-22 04:51:00,
2013-02-21 22:56:00,49.6,39.6,29.89,NNW,348,8.1,14.1,68,0.00,,,0.00,0.0,meteobridge,2013-02-22 04:56:00,
2013-02-21 23:00:00,49.5,39.4,29.88,North,355,8.9,12.1,68,0.00,,,0.00,0.0,meteobridge,2013-02-22 05:00:00,
2013-02-21 23:01:00,49.5,39.4,29.88,North,355,11.0,12.1,68,0.00,,,0.00,0.0,meteobridge,2013-02-22 05:01:00,
2013-02-21 23:05:00,49.1,39.4,29.88,NNW,346,8.9,14.1,69,0.00,,,0.00,0.0,meteobridge,2013-02-22 05:05:00,
2013-02-21 23:10:00,48.9,39.2,29.88,North,350,13.0,13.0,69,0.00,,,0.00,0.0,meteobridge,2013-02-22 05:10:00,
2013-02-21 23:15:00,48.6,39.2,29.88,North,350,8.9,12.1,70,0.00,,,0.00,0.0,meteobridge,2013-02-22 05:15:00,
2013-02-21 23:20:00,48.4,39.4,29.88,NNW,344,10.1,12.1,71,0.00,,,0.00,0.0,meteobridge,2013-02-22 05:20:00,
2013-02-21 23:25:00,48.0,39.0,29.88,NNW,346,6.9,12.1,71,0.00,,,0.00,0.0,meteobridge,2013-02-22 05:25:00,
2013-02-21 23:31:00,47.8,39.2,29.88,North,0,6.9,14.1,72,0.00,,,0.00,0.0,meteobridge,2013-02-22 05:31:00,
2013-02-21 23:36:00,47.5,38.8,29.88,North,350,6.9,12.1,72,0.00,,,0.00,0.0,meteobridge,2013-02-22 05:36:00,
2013-02-21 23:41:00,47.3,39.0,29.88,North,355,8.9,11.0,73,0.00,,,0.00,0.0,meteobridge,2013-02-22 05:41:00,
2013-02-21 23:46:00,46.9,38.7,29.88,North,5,4.9,12.1,73,0.00,,,0.00,0.0,meteobridge,2013-02-22 05:46:00,
2013-02-21 23:51:00,46.8,38.8,29.88,North,355,4.9,10.1,74,0.00,,,0.00,0.0,meteobridge,2013-02-22 05:51:00,
2013-02-21 23:56:00,46.2,38.7,29.88,North,0,8.1,11.0,75,0.00,,,0.00,0.0,meteobridge,2013-02-22 05:56:00,